50 coaches online • Server time: 15:37
* * * Did you know? The best blocker is Taku the Second with 547 casualties.
Log in
Recent Forum Topics goto Post LES LIGUES CARDINALE...goto Post Southern Wastes Leag...goto Post Do They Impress You?...
[B] Calcium's Minmax Deathsquad
Kicked In The Teeth#4 
Chosen Blocker 
MA
5
ST
4
AG
3
AV
9
G
123
R
144
B
840
P
4
F
0
Spp
371
Cp
2
Td
13
In
0
Cs
140
Mvp
10
Injuries
n
Skills
Block
Jump Up
Mighty Blow
Claw
Juggernaut
Tackle
Match performances
Date Opponent Cp TD It Cs Mvp Spp
2013-02-26 Pakkeriata 0 2 0 0 0 6
2013-02-26 cherServiteurS 0 2 0 1 0 8
2013-02-26 Horsemen of Chaos 2 0 0 0 0 2
2013-03-04 Dancing with the wolves 0 0 0 1 1 7
2013-03-05 Crooked Hooves 0 1 0 0 0 3
2013-03-05 (B)lack Forrest Knights 0 1 0 0 0 3
2013-03-10 Orc Azes 0 1 0 0 0 3
2013-03-11 St-Lys Débr'Ailleurs SLDA 0 0 0 1 0 2
2013-03-25 Cellar Door 0 0 0 1 0 2
2013-03-26 Gamma World 0 0 0 1 0 2
2013-03-28 Up'n'Down 0 0 0 0 1 5
2013-03-28 10tacle Experiment 0 0 0 1 0 2
2013-03-30 WMD's in The Box 0 1 0 1 0 5
2013-03-31 We suckalot 0 1 0 0 0 3
2013-03-31 WMD's in The Box 0 0 0 1 0 2
2013-04-01 Death And Disaster 0 1 0 0 0 3
2013-04-03 sansmains 0 0 0 0 1 5
2013-04-03 Positional Dwarfs 0 0 0 0 1 5
2013-04-03 Malebolge Corsair 0 0 0 1 0 2
2013-04-04 Antichità Egizie 0 2 0 2 0 10
2013-04-05 Plumpo 0 0 0 1 0 2
2013-04-06 Bande de gueudin 0 0 0 1 0 2
2013-04-07 Smell like teen dead corpse 0 1 0 3 0 9
2013-04-08 Winx Club ! 0 0 0 1 0 2
2013-04-09 Les Vent-Marcheurs 0 0 0 2 0 4
2013-04-10 Genetic Derivation 0 0 0 2 0 4
2013-04-10 Rotten Sound 0 0 0 3 0 6
2013-04-11 Academia Orka 0 0 0 0 1 5
2013-04-11 Black Beard Box 0 0 0 1 0 2
2013-04-11 Talabheim Banhammers 0 0 0 3 0 6
2013-04-12 sansmains 0 0 0 2 0 4
2013-04-12 Fleischwölfe 0 0 0 0 1 5
2013-04-13 Temple Lords 0 0 0 1 0 2
2013-04-14 Takeshi's chaos castle 0 0 0 1 0 2
2013-04-14 Fleischwölfe 0 0 0 2 0 4
2013-04-14 ACF fior(c)entina 0 0 0 2 0 4
2013-04-15 DisatleticoIAiTelai 0 0 0 1 0 2
2013-04-15 0z 0 0 0 1 1 7
2013-04-15 Not scheduled - Chavo 0 0 0 1 0 2
2013-04-15 Popanzen 0 0 0 2 1 9
2013-04-16 Klonktrollen 0 0 0 2 0 4
2013-04-17 Modelo K 0 0 0 2 0 4
2013-04-17 St-Lys Débr'Ailleurs SLDA 0 0 0 4 0 8
2013-04-19 Light Touch 0 0 0 1 0 2
2013-04-20 Hatarna 0 0 0 2 0 4
2013-04-20 Cheese'n'Roll 0 0 0 3 0 6
2013-04-21 Toispuoleiset 0 0 0 3 0 6
2013-04-21 Serial Blockers 0 0 0 2 0 4
2013-04-21 All-Jey Green 0 0 0 2 0 4
2013-04-21 Horsemen of Chaos 0 0 0 1 0 2
2013-04-21 [B]est Imitation of Myself 0 0 0 1 0 2
2013-04-22 Under the [B]oardwalk 0 0 0 5 0 10
2013-04-22 Terrific Greens 0 0 0 5 0 10
2013-04-22 Hatarna 0 0 0 2 0 4
2013-04-23 DisatleticoIAiTelai 0 0 0 1 0 2
2013-04-29 King of the Ice 0 0 0 4 0 8
2013-04-29 Stinky Evil 0 0 0 1 0 2
2013-04-29 Court of Valhalla 0 0 0 3 0 6
2013-04-30 Frogs of Unusual Size 0 0 0 2 0 4
2013-05-01 Nile Rangers 0 0 0 3 0 6
2013-05-02 Kingston Kruelty 0 0 0 2 0 4
2013-05-02 Everglade Rangers 0 0 0 2 0 4
2013-05-03 Greens Friends II 0 0 0 2 0 4
2013-05-03 Gorblugs Raiders 0 0 0 4 0 8
2013-05-03 Unholy Fiends 0 0 0 2 0 4
2013-05-05 Crumbling Bones II 0 0 0 3 0 6
2013-05-06 I Rinnegati 0 0 0 1 0 2
2013-05-07 Crooked Hooves 0 0 0 1 0 2
2013-05-15 Black Beard Box 0 0 0 2 0 4
2013-05-22 Er Piotta 0 0 0 1 0 2
2013-06-11 Harsch 0 0 0 1 0 2
2013-06-13 Superpow 0 0 0 3 0 6
2013-06-14 Grag An Karak 0 0 0 1 0 2
2013-09-28 Some Blokes and the Chipmunks 0 0 0 4 0 8
2013-10-02 For Those A[B]out To Rot 0 0 0 1 0 2
2013-10-21 Thumbing my way 0 0 0 1 1 7
2013-11-06 dark black small 0 0 0 2 1 9
2013-11-12 Eyre Faery 0 0 0 2 0 4
2013-11-19 painsmall 0 0 0 3 0 6
2013-11-25 staderosette 0 0 0 1 0 2
2013-12-06 Harsch 0 0 0 3 0 6
2013-12-17 Mata Leon 0 0 0 2 0 4
2014-01-02 Human Rage 0 0 0 2 0 4
2014-01-02 Leapers Colony 0 0 0 4 0 8